Time;durP1;ratioP1;P1;durP2;ratioP2;P2;SDS_P1;SDS_P2;PMS_P1;PMS_P2;Temp;Humidity;BMP_temperature;BMP_pressure;BME280_temperature;BME280_humidity;BME280_pressure;Samples;Min_cycle;Max_cycle;Signal;HPM_P1;HPM_P2
2021/07/20 00:00:10;;;;;;;;;;;;;;;;;;5068753;28;20325;-61
2021/07/20 00:02:37;;;;;;;;;;;;;;;;;;5068554;28;20062;-61
2021/07/20 00:05:03;;;;;;;;;;;;;;;;;;5068813;28;19959;-61
2021/07/20 00:07:28;;;;;;;;;;;;;;;;;;5068423;28;19912;-61
2021/07/20 00:09:54;;;;;;;;;;;;;;;;;;5070723;28;20279;-62
2021/07/20 00:12:20;;;;;;;;;;;;;;;;;;5070004;28;19927;-62
2021/07/20 00:14:46;;;;;;;;;;;;;;;;;;5068392;28;20307;-61
2021/07/20 00:17:12;;;;;;;;;;;;;;;;;;5068838;28;19964;-61
2021/07/20 00:19:38;;;;;;;;;;;;;;;;;;5068878;28;20419;-61
2021/07/20 00:22:04;;;;;;;;;;;;;;;;;;5070718;28;19909;-62
2021/07/20 00:24:29;;;;;;;;;;;;;;;;;;5069590;28;20326;-62
2021/07/20 00:26:55;;;;;;;;;;;;;;;;;;5068332;28;19967;-62
2021/07/20 00:29:21;;;;;;;;;;;;;;;;;;5071018;28;19912;-61
2021/07/20 00:31:47;;;;;;;;;;;;;;;;;;5072273;28;19913;-62
2021/07/20 00:34:13;;;;;;;;;;;;;;;;;;5054610;28;19919;-61
2021/07/20 00:36:39;;;;;;;;;;;;;;;;;;5074930;28;19924;-61
2021/07/20 00:39:05;;;;;;;;;;;;;;;;;;5072507;28;19919;-61
2021/07/20 00:41:31;;;;;;;;;;;;;;;;;;5072289;28;19913;-62
2021/07/20 00:43:57;;;;;;;;;;;;;;;;;;5071892;28;19916;-61
2021/07/20 00:46:22;;;;;;;;;;;;;;;;;;5071347;28;20083;-61
2021/07/20 00:48:48;;;;;;;;;;;;;;;;;;5075340;28;19916;-61
2021/07/20 00:51:14;;;;;;;;;;;;;;;;;;5072250;28;19916;-62
2021/07/20 00:53:40;;;;;;;;;;;;;;;;;;5071988;28;19955;-62
2021/07/20 00:56:06;;;;;;;;;;;;;;;;;;5071249;28;19927;-61
2021/07/20 00:58:32;;;;;;;;;;;;;;;;;;5072100;28;19920;-61
2021/07/20 01:00:58;;;;;;;;;;;;;;;;;;5073853;28;19995;-61
2021/07/20 01:03:24;;;;;;;;;;;;;;;;;;5073258;28;19920;-61
2021/07/20 01:05:50;;;;;;;;;;;;;;;;;;5071022;28;19962;-61
2021/07/20 01:08:16;;;;;;;;;;;;;;;;;;5071660;28;20265;-61
2021/07/20 01:10:42;;;;;;;;;;;;;;;;;;5071774;28;19962;-61
2021/07/20 01:13:08;;;;;;;;;;;;;;;;;;5072541;28;20180;-61
2021/07/20 01:15:34;;;;;;;;;;;;;;;;;;5074106;28;20371;-61
2021/07/20 01:18:00;;;;;;;;;;;;;;;;;;5071081;28;19920;-61
2021/07/20 01:20:25;;;;;;;;;;;;;;;;;;5071401;28;19912;-61
2021/07/20 01:22:52;;;;;;;;;;;;;;;;;;5071845;28;19917;-61
2021/07/20 01:25:18;;;;;;;;;;;;;;;;;;5071290;28;20038;-62
2021/07/20 01:27:44;;;;;;;;;;;;;;;;;;5075090;28;20378;-62
2021/07/20 01:30:09;;;;;;;;;;;;;;;;;;5071423;28;19966;-61
2021/07/20 01:32:35;;;;;;;;;;;;;;;;;;5071209;28;20390;-62
2021/07/20 01:35:01;;;;;;;;;;;;;;;;;;5070741;28;19912;-62
2021/07/20 01:37:27;;;;;;;;;;;;;;;;;;5053659;28;19928;-62
2021/07/20 01:39:53;;;;;;;;;;;;;;;;;;5073860;28;19908;-62
2021/07/20 01:42:19;;;;;;;;;;;;;;;;;;5072564;28;19908;-62
2021/07/20 01:44:45;;;;;;;;;;;;;;;;;;5070789;28;19966;-62
2021/07/20 01:47:11;;;;;;;;;;;;;;;;;;5070915;28;19982;-62
2021/07/20 01:49:38;;;;;;;;;;;;;;;;;;5071175;28;19917;-62
2021/07/20 01:52:04;;;;;;;;;;;;;;;;;;5073539;28;19909;-61
2021/07/20 01:54:30;;;;;;;;;;;;;;;;;;5072964;28;19915;-62
2021/07/20 01:56:56;;;;;;;;;;;;;;;;;;5070133;28;20342;-61
2021/07/20 01:59:21;;;;;;;;;;;;;;;;;;5071003;28;19935;-61
2021/07/20 02:04:45;;;;;;;;;;;;;;;;;;5055827;28;20287;-62
2021/07/20 02:10:09;;;;;;;;;;;;;;;;;;5016660;28;19913;-61
2021/07/20 02:12:39;;;;;;;;;;;;;;;;;;5072827;28;20015;-61
2021/07/20 02:15:05;;;;;;;;;;;;;;;;;;5070905;28;20035;-61
2021/07/20 02:17:31;;;;;;;;;;;;;;;;;;5070736;28;19925;-61
2021/07/20 02:19:57;;;;;;;;;;;;;;;;;;5070573;28;19916;-61
2021/07/20 02:22:22;;;;;;;;;;;;;;;;;;5070086;28;19924;-61
2021/07/20 02:24:48;;;;;;;;;;;;;;;;;;5073508;28;19915;-61
2021/07/20 02:27:14;;;;;;;;;;;;;;;;;;5071027;28;19958;-61
2021/07/20 02:29:40;;;;;;;;;;;;;;;;;;5070089;28;19958;-61
2021/07/20 02:32:06;;;;;;;;;;;;;;;;;;5070223;28;20352;-61
2021/07/20 02:34:32;;;;;;;;;;;;;;;;;;5070286;28;19959;-61
2021/07/20 02:36:58;;;;;;;;;;;;;;;;;;5072571;28;19920;-61
2021/07/20 02:39:23;;;;;;;;;;;;;;;;;;5071410;28;19908;-61
2021/07/20 02:41:49;;;;;;;;;;;;;;;;;;5069981;28;19917;-61
2021/07/20 02:44:15;;;;;;;;;;;;;;;;;;5069628;28;19919;-61
2021/07/20 02:46:42;;;;;;;;;;;;;;;;;;5070052;28;20333;-62
2021/07/20 02:49:07;;;;;;;;;;;;;;;;;;5071454;28;19928;-61
2021/07/20 02:51:33;;;;;;;;;;;;;;;;;;5071594;28;20347;-61
2021/07/20 02:53:59;;;;;;;;;;;;;;;;;;5069773;28;20036;-61
2021/07/20 02:56:25;;;;;;;;;;;;;;;;;;5069214;28;19969;-62
2021/07/20 02:58:51;;;;;;;;;;;;;;;;;;5069923;28;19920;-61
2021/07/20 03:01:17;;;;;;;;;;;;;;;;;;5070212;28;19960;-61
2021/07/20 03:03:43;;;;;;;;;;;;;;;;;;5072806;28;19908;-61
2021/07/20 03:06:09;;;;;;;;;;;;;;;;;;5069447;28;19913;-61
2021/07/20 03:08:36;;;;;;;;;;;;;;;;;;5069732;28;20052;-61
2021/07/20 03:11:02;;;;;;;;;;;;;;;;;;5069566;28;19916;-61
2021/07/20 03:13:28;;;;;;;;;;;;;;;;;;5069612;28;20368;-62
2021/07/20 03:15:54;;;;;;;;;;;;;;;;;;5072188;28;19912;-61
2021/07/20 03:18:20;;;;;;;;;;;;;;;;;;5071342;28;20296;-61
2021/07/20 03:20:45;;;;;;;;;;;;;;;;;;5069014;28;19913;-61
2021/07/20 03:23:11;;;;;;;;;;;;;;;;;;5069416;28;19952;-61
2021/07/20 03:25:37;;;;;;;;;;;;;;;;;;5069214;28;19913;-61
2021/07/20 03:28:03;;;;;;;;;;;;;;;;;;5071155;28;19909;-61
2021/07/20 03:30:29;;;;;;;;;;;;;;;;;;5070784;28;19909;-61
2021/07/20 03:32:55;;;;;;;;;;;;;;;;;;5068784;28;19970;-61
2021/07/20 03:35:21;;;;;;;;;;;;;;;;;;5069344;28;19912;-61
2021/07/20 03:37:47;;;;;;;;;;;;;;;;;;5069310;28;19956;-61
2021/07/20 03:40:13;;;;;;;;;;;;;;;;;;5070380;28;19912;-61
2021/07/20 03:42:39;;;;;;;;;;;;;;;;;;5071686;28;20360;-61
2021/07/20 03:45:04;;;;;;;;;;;;;;;;;;5069009;28;19917;-61
2021/07/20 03:47:30;;;;;;;;;;;;;;;;;;5068904;28;19919;-62
2021/07/20 03:49:56;;;;;;;;;;;;;;;;;;5069015;28;19919;-62
2021/07/20 03:52:22;;;;;;;;;;;;;;;;;;5068891;28;20287;-61
2021/07/20 03:54:48;;;;;;;;;;;;;;;;;;5072473;28;19908;-61
2021/07/20 03:57:15;;;;;;;;;;;;;;;;;;5070795;28;19990;-61
2021/07/20 03:59:41;;;;;;;;;;;;;;;;;;5068408;28;19920;-61
2021/07/20 04:02:07;;;;;;;;;;;;;;;;;;5068512;28;20452;-61
2021/07/20 04:04:32;;;;;;;;;;;;;;;;;;5068543;28;19912;-61
2021/07/20 04:06:58;;;;;;;;;;;;;;;;;;5070942;28;19912;-61
2021/07/20 04:09:24;;;;;;;;;;;;;;;;;;5070022;28;19916;-62
2021/07/20 04:11:50;;;;;;;;;;;;;;;;;;5068489;28;20382;-61
2021/07/20 04:14:16;;;;;;;;;;;;;;;;;;5068102;28;19974;-62
2021/07/20 04:16:42;;;;;;;;;;;;;;;;;;5050396;28;19917;-62
2021/07/20 04:19:09;;;;;;;;;;;;;;;;;;5070228;28;20352;-62
2021/07/20 04:21:35;;;;;;;;;;;;;;;;;;5070922;28;19916;-62
2021/07/20 04:24:01;;;;;;;;;;;;;;;;;;5068499;28;20271;-62
2021/07/20 04:26:26;;;;;;;;;;;;;;;;;;5068449;28;19923;-62
2021/07/20 04:28:52;;;;;;;;;;;;;;;;;;5067972;28;20340;-62
2021/07/20 04:31:18;;;;;;;;;;;;;;;;;;5068977;28;20083;-62
2021/07/20 04:33:46;;;;;;;;;;;;;;;;;;5071984;28;19912;-62
2021/07/20 04:36:12;;;;;;;;;;;;;;;;;;5068476;28;20371;-62
2021/07/20 04:38:37;;;;;;;;;;;;;;;;;;5068682;28;19956;-62
2021/07/20 04:41:03;;;;;;;;;;;;;;;;;;5068137;28;19912;-62
2021/07/20 04:43:29;;;;;;;;;;;;;;;;;;5068222;28;19913;-62
2021/07/20 04:45:56;;;;;;;;;;;;;;;;;;5070628;28;19908;-62
2021/07/20 04:48:22;;;;;;;;;;;;;;;;;;5069694;28;19913;-62
2021/07/20 04:50:48;;;;;;;;;;;;;;;;;;5068555;28;19913;-62
2021/07/20 04:53:14;;;;;;;;;;;;;;;;;;5068180;28;20394;-62
2021/07/20 04:55:40;;;;;;;;;;;;;;;;;;5068412;28;19966;-62
2021/07/20 04:58:05;;;;;;;;;;;;;;;;;;5069600;28;20253;-62
2021/07/20 05:00:31;;;;;;;;;;;;;;;;;;5070435;28;20434;-69
2021/07/20 05:02:57;;;;;;;;;;;;;;;;;;5068079;28;19927;-69
2021/07/20 05:05:24;;;;;;;;;;;;;;;;;;5068253;28;19920;-69
2021/07/20 05:07:50;;;;;;;;;;;;;;;;;;5068048;28;19913;-69
2021/07/20 05:10:16;;;;;;;;;;;;;;;;;;5068883;28;20330;-69
2021/07/20 05:12:41;;;;;;;;;;;;;;;;;;5070850;28;19928;-69
2021/07/20 05:15:07;;;;;;;;;;;;;;;;;;5070323;28;19922;-69
2021/07/20 05:17:33;;;;;;;;;;;;;;;;;;5071769;28;19920;-69
2021/07/20 05:19:59;;;;;;;;;;;;;;;;;;5071625;28;19912;-69
2021/07/20 05:22:25;;;;;;;;;;;;;;;;;;5071777;28;19913;-69
2021/07/20 05:24:51;;;;;;;;;;;;;;;;;;5073950;28;20326;-69
2021/07/20 05:27:17;;;;;;;;;;;;;;;;;;5072233;28;19919;-69
2021/07/20 05:29:46;;;;;;;;;;;;;;;;;;5071514;28;20386;-69
2021/07/20 05:32:12;;;;;;;;;;;;;;;;;;5071691;28;19935;-69
2021/07/20 05:34:38;;;;;;;;;;;;;;;;;;5071569;28;20261;-69
2021/07/20 05:37:04;;;;;;;;;;;;;;;;;;5072816;28;19999;-69
2021/07/20 05:39:32;;;;;;;;;;;;;;;;;;5073172;28;20329;-69
2021/07/20 05:41:58;;;;;;;;;;;;;;;;;;5071242;28;19963;-69
2021/07/20 05:44:24;;;;;;;;;;;;;;;;;;5071297;28;19967;-69
2021/07/20 05:46:50;;;;;;;;;;;;;;;;;;5070911;28;19912;-69
2021/07/20 05:49:17;;;;;;;;;;;;;;;;;;5055313;28;19916;-69
2021/07/20 05:51:42;;;;;;;;;;;;;;;;;;5074784;28;19997;-69
2021/07/20 05:54:08;;;;;;;;;;;;;;;;;;5070779;28;19983;-70
2021/07/20 05:56:34;;;;;;;;;;;;;;;;;;5070917;28;20022;-69
2021/07/20 05:59:00;;;;;;;;;;;;;;;;;;5070883;28;19916;-69
2021/07/20 06:01:26;;;;;;;;;;;;;;;;;;5070508;28;19971;-69
2021/07/20 06:03:52;;;;;;;;;;;;;;;;;;5073645;28;20431;-69
2021/07/20 06:06:18;;;;;;;;;;;;;;;;;;5071867;28;19908;-69
2021/07/20 06:08:44;;;;;;;;;;;;;;;;;;5070709;28;20318;-69
2021/07/20 06:11:10;;;;;;;;;;;;;;;;;;5070271;28;19938;-70
2021/07/20 06:13:36;;;;;;;;;;;;;;;;;;5070458;28;19971;-69
2021/07/20 06:16:01;;;;;;;;;;;;;;;;;;5073033;28;20382;-69
2021/07/20 06:18:27;;;;;;;;;;;;;;;;;;5071855;28;19923;-69
2021/07/20 06:20:53;;;;;;;;;;;;;;;;;;5070186;28;19912;-68
2021/07/20 06:23:19;;;;;;;;;;;;;;;;;;5070481;28;19912;-69
2021/07/20 06:25:45;;;;;;;;;;;;;;;;;;5068816;28;19912;-68
2021/07/20 06:28:11;;;;;;;;;;;;;;;;;;5071424;28;19963;-69
2021/07/20 06:30:37;;;;;;;;;;;;;;;;;;5073106;28;20296;-69
2021/07/20 06:33:03;;;;;;;;;;;;;;;;;;5069952;28;19919;-69
2021/07/20 06:35:29;;;;;;;;;;;;;;;;;;5070409;28;20580;-69
2021/07/20 06:37:54;;;;;;;;;;;;;;;;;;5070128;28;19956;-69
2021/07/20 06:40:20;;;;;;;;;;;;;;;;;;5069652;28;19916;-69
2021/07/20 06:42:46;;;;;;;;;;;;;;;;;;5073836;28;19909;-69
2021/07/20 06:45:12;;;;;;;;;;;;;;;;;;5070109;28;19919;-69
2021/07/20 06:47:41;;;;;;;;;;;;;;;;;;5069529;28;19995;-69
2021/07/20 06:50:07;;;;;;;;;;;;;;;;;;5069707;28;19912;-69
2021/07/20 06:52:32;;;;;;;;;;;;;;;;;;5070024;28;19935;-69
2021/07/20 06:55:00;;;;;;;;;;;;;;;;;;5072099;28;19909;-69
2021/07/20 06:57:26;;;;;;;;;;;;;;;;;;5070257;28;19917;-69
2021/07/20 06:59:51;;;;;;;;;;;;;;;;;;5069881;28;20330;-69
2021/07/20 07:02:17;;;;;;;;;;;;;;;;;;5069654;28;19923;-69
2021/07/20 07:04:44;;;;;;;;;;;;;;;;;;5069646;28;20284;-69
2021/07/20 07:07:10;;;;;;;;;;;;;;;;;;5070554;28;19913;-69
2021/07/20 07:09:36;;;;;;;;;;;;;;;;;;5071699;28;19915;-69
2021/07/20 07:12:02;;;;;;;;;;;;;;;;;;5069304;28;20253;-69
2021/07/20 07:14:28;;;;;;;;;;;;;;;;;;5069617;28;20010;-69
2021/07/20 07:16:54;;;;;;;;;;;;;;;;;;5068517;28;19924;-69
2021/07/20 07:19:20;;;;;;;;;;;;;;;;;;5069312;28;19982;-69
2021/07/20 07:21:45;;;;;;;;;;;;;;;;;;5073146;28;19996;-69
2021/07/20 07:24:11;;;;;;;;;;;;;;;;;;5069174;28;19935;-69
2021/07/20 07:26:37;;;;;;;;;;;;;;;;;;5069004;28;19916;-69
2021/07/20 07:29:03;;;;;;;;;;;;;;;;;;5069440;28;20424;-69
2021/07/20 07:31:29;;;;;;;;;;;;;;;;;;5069030;28;19917;-69
2021/07/20 07:33:55;;;;;;;;;;;;;;;;;;5071585;28;19908;-69
2021/07/20 07:36:21;;;;;;;;;;;;;;;;;;5070236;28;19912;-69
2021/07/20 07:38:47;;;;;;;;;;;;;;;;;;5068811;28;19959;-69
2021/07/20 07:41:12;;;;;;;;;;;;;;;;;;5068867;28;20383;-69
2021/07/20 07:43:38;;;;;;;;;;;;;;;;;;5068743;28;19948;-69
2021/07/20 07:46:04;;;;;;;;;;;;;;;;;;5071274;28;20368;-69
2021/07/20 07:48:36;;;;;;;;;;;;;;;;;;5070845;28;19908;-69
2021/07/20 07:51:02;;;;;;;;;;;;;;;;;;5068617;28;20276;-69
2021/07/20 07:53:28;;;;;;;;;;;;;;;;;;5068650;28;19919;-69
2021/07/20 07:55:54;;;;;;;;;;;;;;;;;;5068694;28;19912;-69
2021/07/20 07:58:20;;;;;;;;;;;;;;;;;;5068988;28;19944;-69
2021/07/20 08:00:46;;;;;;;;;;;;;;;;;;5072683;28;20284;-69
2021/07/20 08:03:13;;;;;;;;;;;;;;;;;;5068584;28;19913;-69
2021/07/20 08:05:39;;;;;;;;;;;;;;;;;;5068643;28;19912;-69
2021/07/20 08:08:08;;;;;;;;;;;;;;;;;;5068398;28;19965;-69
2021/07/20 08:10:33;;;;;;;;;;;;;;;;;;5068934;28;19995;-69
2021/07/20 08:13:00;;;;;;;;;;;;;;;;;;5071222;28;20363;-69
2021/07/20 08:15:26;;;;;;;;;;;;;;;;;;5069804;28;19912;-69
2021/07/20 08:17:52;;;;;;;;;;;;;;;;;;5068517;28;19916;-69
2021/07/20 08:20:18;;;;;;;;;;;;;;;;;;5068785;28;19916;-69
2021/07/20 08:22:44;;;;;;;;;;;;;;;;;;5068268;28;19942;-69
2021/07/20 08:25:10;;;;;;;;;;;;;;;;;;5070223;28;20352;-67
2021/07/20 08:27:37;;;;;;;;;;;;;;;;;;5070823;28;20003;-69
2021/07/20 08:30:03;;;;;;;;;;;;;;;;;;5068714;28;19909;-69
2021/07/20 08:32:28;;;;;;;;;;;;;;;;;;5068115;28;20356;-69
2021/07/20 08:34:54;;;;;;;;;;;;;;;;;;5068420;28;19983;-69
2021/07/20 08:37:20;;;;;;;;;;;;;;;;;;5067822;28;19959;-69
2021/07/20 08:39:46;;;;;;;;;;;;;;;;;;5072377;28;19915;-69
2021/07/20 08:42:12;;;;;;;;;;;;;;;;;;5068236;28;20015;-69
2021/07/20 08:44:38;;;;;;;;;;;;;;;;;;5068585;28;20012;-69
2021/07/20 08:47:04;;;;;;;;;;;;;;;;;;5068423;28;20264;-69
2021/07/20 08:49:30;;;;;;;;;;;;;;;;;;5069430;28;20356;-69
2021/07/20 08:51:55;;;;;;;;;;;;;;;;;;5074579;28;19936;-69
2021/07/20 08:54:23;;;;;;;;;;;;;;;;;;5059998;28;19912;-69
2021/07/20 08:56:48;;;;;;;;;;;;;;;;;;5071987;28;19965;-69
2021/07/20 08:59:14;;;;;;;;;;;;;;;;;;5072195;28;19912;-69
2021/07/20 09:01:41;;;;;;;;;;;;;;;;;;5072189;28;19908;-68
2021/07/20 09:04:07;;;;;;;;;;;;;;;;;;5072925;28;20259;-69
2021/07/20 09:06:32;;;;;;;;;;;;;;;;;;5074025;28;19999;-69
2021/07/20 09:08:58;;;;;;;;;;;;;;;;;;5071991;28;19916;-69
2021/07/20 09:11:24;;;;;;;;;;;;;;;;;;5071834;28;19920;-68
2021/07/20 09:13:50;;;;;;;;;;;;;;;;;;5071209;28;19921;-69
2021/07/20 09:16:16;;;;;;;;;;;;;;;;;;5072094;28;20420;-68
2021/07/20 09:18:45;;;;;;;;;;;;;;;;;;5061391;28;19913;-68
2021/07/20 09:21:11;;;;;;;;;;;;;;;;;;5071751;28;19958;-68
2021/07/20 09:23:37;;;;;;;;;;;;;;;;;;5071392;28;19916;-69
2021/07/20 09:26:03;;;;;;;;;;;;;;;;;;5056560;28;19980;-69
2021/07/20 09:28:29;;;;;;;;;;;;;;;;;;5071482;28;19913;-69
2021/07/20 09:30:55;;;;;;;;;;;;;;;;;;5074045;28;19909;-69
2021/07/20 09:33:21;;;;;;;;;;;;;;;;;;5073559;28;19985;-68
2021/07/20 09:35:47;;;;;;;;;;;;;;;;;;5071569;28;19913;-68
2021/07/20 09:38:12;;;;;;;;;;;;;;;;;;5071434;28;19982;-69
2021/07/20 09:40:38;;;;;;;;;;;;;;;;;;5071096;28;20318;-68
2021/07/20 09:43:04;;;;;;;;;;;;;;;;;;5073420;28;19999;-68
2021/07/20 09:45:30;;;;;;;;;;;;;;;;;;5072594;28;19909;-68
2021/07/20 09:47:56;;;;;;;;;;;;;;;;;;5071203;28;19938;-69
2021/07/20 09:50:22;;;;;;;;;;;;;;;;;;5071321;28;19999;-69
2021/07/20 09:52:48;;;;;;;;;;;;;;;;;;5070435;28;19923;-69
2021/07/20 09:55:14;;;;;;;;;;;;;;;;;;5071651;28;19948;-68
2021/07/20 09:57:40;;;;;;;;;;;;;;;;;;5074045;28;19921;-67
2021/07/20 10:00:06;;;;;;;;;;;;;;;;;;5070903;28;19913;-67
2021/07/20 10:02:32;;;;;;;;;;;;;;;;;;5070821;28;19964;-68
2021/07/20 10:04:58;;;;;;;;;;;;;;;;;;5070361;28;19951;-67
2021/07/20 10:07:24;;;;;;;;;;;;;;;;;;5071113;28;19927;-68
2021/07/20 10:09:50;;;;;;;;;;;;;;;;;;5074047;28;20368;-67
2021/07/20 10:12:16;;;;;;;;;;;;;;;;;;5070885;28;19995;-67
2021/07/20 10:14:41;;;;;;;;;;;;;;;;;;5070886;28;19913;-68
2021/07/20 10:17:07;;;;;;;;;;;;;;;;;;5070219;28;19924;-67
2021/07/20 10:19:33;;;;;;;;;;;;;;;;;;5070700;28;20372;-69
2021/07/20 10:22:00;;;;;;;;;;;;;;;;;;5073220;28;20046;-67
2021/07/20 10:24:27;;;;;;;;;;;;;;;;;;5071432;28;19964;-67
2021/07/20 10:26:53;;;;;;;;;;;;;;;;;;5070333;28;19916;-67
2021/07/20 10:29:19;;;;;;;;;;;;;;;;;;5070437;28;20386;-68
2021/07/20 10:31:45;;;;;;;;;;;;;;;;;;5069718;28;20386;-68
2021/07/20 10:34:11;;;;;;;;;;;;;;;;;;5070944;28;19927;-68
2021/07/20 10:36:37;;;;;;;;;;;;;;;;;;5072780;28;19920;-67
2021/07/20 10:39:03;;;;;;;;;;;;;;;;;;5069601;28;19916;-67
2021/07/20 10:41:29;;;;;;;;;;;;;;;;;;5070198;28;19966;-68
2021/07/20 10:43:55;;;;;;;;;;;;;;;;;;5069831;28;19919;-68
2021/07/20 10:46:21;;;;;;;;;;;;;;;;;;5069898;28;19936;-68
2021/07/20 10:48:47;;;;;;;;;;;;;;;;;;5073379;28;19912;-68
2021/07/20 10:51:13;;;;;;;;;;;;;;;;;;5069952;28;20284;-68
2021/07/20 10:53:39;;;;;;;;;;;;;;;;;;5069616;28;20008;-67
2021/07/20 10:56:05;;;;;;;;;;;;;;;;;;5069810;28;20271;-67
2021/07/20 10:58:30;;;;;;;;;;;;;;;;;;5069541;28;19924;-68
2021/07/20 11:00:57;;;;;;;;;;;;;;;;;;5072045;28;19973;-68
2021/07/20 11:03:22;;;;;;;;;;;;;;;;;;5071081;28;19979;-68
2021/07/20 11:05:48;;;;;;;;;;;;;;;;;;5069519;28;19916;-68
2021/07/20 11:08:14;;;;;;;;;;;;;;;;;;5069245;28;20399;-67
2021/07/20 11:10:40;;;;;;;;;;;;;;;;;;5069113;28;19912;-69
2021/07/20 11:13:06;;;;;;;;;;;;;;;;;;5070570;28;19920;-69
2021/07/20 11:15:32;;;;;;;;;;;;;;;;;;5071344;28;19944;-69
2021/07/20 11:17:58;;;;;;;;;;;;;;;;;;5069084;28;19979;-67
2021/07/20 11:20:24;;;;;;;;;;;;;;;;;;5069567;28;19966;-67
2021/07/20 11:22:50;;;;;;;;;;;;;;;;;;5069135;28;19915;-67
2021/07/20 11:25:16;;;;;;;;;;;;;;;;;;5070071;28;19924;-69
2021/07/20 11:27:44;;;;;;;;;;;;;;;;;;5072526;28;20380;-69
2021/07/20 11:30:10;;;;;;;;;;;;;;;;;;5068431;28;19916;-69
2021/07/20 11:32:35;;;;;;;;;;;;;;;;;;5069360;28;19912;-69
2021/07/20 11:35:01;;;;;;;;;;;;;;;;;;5069205;28;19993;-69
2021/07/20 11:37:27;;;;;;;;;;;;;;;;;;5069327;28;19924;-69
2021/07/20 11:39:53;;;;;;;;;;;;;;;;;;5071764;28;19912;-69
2021/07/20 11:42:19;;;;;;;;;;;;;;;;;;5070216;28;20006;-69
2021/07/20 11:44:45;;;;;;;;;;;;;;;;;;5068523;28;20360;-69
2021/07/20 11:47:11;;;;;;;;;;;;;;;;;;5069025;28;19991;-69
2021/07/20 11:49:38;;;;;;;;;;;;;;;;;;5068675;28;20475;-69
2021/07/20 11:52:04;;;;;;;;;;;;;;;;;;5071261;28;19913;-69
2021/07/20 11:54:30;;;;;;;;;;;;;;;;;;5070540;28;20043;-69
2021/07/20 11:56:55;;;;;;;;;;;;;;;;;;5068961;28;19920;-69
2021/07/20 11:59:21;;;;;;;;;;;;;;;;;;5067998;28;20380;-69
2021/07/20 12:01:47;;;;;;;;;;;;;;;;;;5069151;28;19915;-69
2021/07/20 12:04:13;;;;;;;;;;;;;;;;;;5069824;28;20370;-69
2021/07/20 12:06:39;;;;;;;;;;;;;;;;;;5071817;28;20444;-69
2021/07/20 12:09:05;;;;;;;;;;;;;;;;;;5068117;28;19908;-69
2021/07/20 12:11:31;;;;;;;;;;;;;;;;;;5068765;28;20387;-69
2021/07/20 12:13:57;;;;;;;;;;;;;;;;;;5068698;28;19955;-69
2021/07/20 12:16:22;;;;;;;;;;;;;;;;;;5068356;28;19920;-69
2021/07/20 12:18:48;;;;;;;;;;;;;;;;;;5072065;28;20419;-69
2021/07/20 12:21:14;;;;;;;;;;;;;;;;;;5069087;28;19908;-69
2021/07/20 12:23:40;;;;;;;;;;;;;;;;;;5068870;28;19965;-69
2021/07/20 12:26:06;;;;;;;;;;;;;;;;;;5057999;28;20002;-69
2021/07/20 12:28:32;;;;;;;;;;;;;;;;;;5071910;28;19913;-69
2021/07/20 12:30:59;;;;;;;;;;;;;;;;;;5074987;28;19935;-69
2021/07/20 12:33:25;;;;;;;;;;;;;;;;;;5074005;28;19995;-69
2021/07/20 12:35:51;;;;;;;;;;;;;;;;;;5072479;28;20066;-69
2021/07/20 12:38:17;;;;;;;;;;;;;;;;;;5072320;28;19928;-69
2021/07/20 12:40:43;;;;;;;;;;;;;;;;;;5072681;28;19913;-69
2021/07/20 12:43:09;;;;;;;;;;;;;;;;;;5073652;28;19921;-69
2021/07/20 12:45:35;;;;;;;;;;;;;;;;;;5074340;28;19912;-69
2021/07/20 12:48:01;;;;;;;;;;;;;;;;;;5072387;28;19913;-69
2021/07/20 12:50:28;;;;;;;;;;;;;;;;;;5072436;28;19917;-69
2021/07/20 12:52:54;;;;;;;;;;;;;;;;;;5072448;28;19971;-69
2021/07/20 12:55:20;;;;;;;;;;;;;;;;;;5071774;28;19944;-69
2021/07/20 12:57:46;;;;;;;;;;;;;;;;;;5075646;28;20425;-69
2021/07/20 13:00:13;;;;;;;;;;;;;;;;;;5072151;28;19920;-69
2021/07/20 13:02:40;;;;;;;;;;;;;;;;;;5071892;28;19992;-62
2021/07/20 13:05:06;;;;;;;;;;;;;;;;;;5072283;28;19920;-63
2021/07/20 13:07:34;;;;;;;;;;;;;;;;;;5071637;28;19913;-62
2021/07/20 13:10:00;;;;;;;;;;;;;;;;;;5073933;28;19916;-62
2021/07/20 13:12:26;;;;;;;;;;;;;;;;;;5072924;28;20298;-63
2021/07/20 13:14:52;;;;;;;;;;;;;;;;;;5071904;28;19913;-63
2021/07/20 13:17:18;;;;;;;;;;;;;;;;;;5071409;28;19978;-63
2021/07/20 13:19:44;;;;;;;;;;;;;;;;;;5071615;28;19912;-63
2021/07/20 13:22:10;;;;;;;;;;;;;;;;;;5073427;28;20012;-64
2021/07/20 13:24:35;;;;;;;;;;;;;;;;;;5074180;28;19916;-63
2021/07/20 13:27:01;;;;;;;;;;;;;;;;;;5071082;28;19913;-63
2021/07/20 13:29:27;;;;;;;;;;;;;;;;;;5071716;28;19920;-62
2021/07/20 13:31:53;;;;;;;;;;;;;;;;;;5071279;28;19912;-62
2021/07/20 13:34:20;;;;;;;;;;;;;;;;;;5071920;28;19913;-62
2021/07/20 13:36:46;;;;;;;;;;;;;;;;;;5074725;28;20387;-63
2021/07/20 13:39:12;;;;;;;;;;;;;;;;;;5071560;28;20384;-63
2021/07/20 13:41:38;;;;;;;;;;;;;;;;;;5070495;28;19916;-62
2021/07/20 13:44:04;;;;;;;;;;;;;;;;;;5071460;28;19923;-63
2021/07/20 13:46:30;;;;;;;;;;;;;;;;;;5071120;28;19968;-63
2021/07/20 13:48:56;;;;;;;;;;;;;;;;;;5073559;28;19946;-63
2021/07/20 13:51:22;;;;;;;;;;;;;;;;;;5072231;28;20301;-63
2021/07/20 13:53:48;;;;;;;;;;;;;;;;;;5070940;28;19916;-63
2021/07/20 13:56:15;;;;;;;;;;;;;;;;;;5070867;28;20352;-63
2021/07/20 13:58:41;;;;;;;;;;;;;;;;;;5071185;28;19923;-63
2021/07/20 14:01:07;;;;;;;;;;;;;;;;;;5072591;28;20314;-63
2021/07/20 14:03:33;;;;;;;;;;;;;;;;;;5072982;28;19908;-62
2021/07/20 14:05:59;;;;;;;;;;;;;;;;;;5070592;28;19975;-63
2021/07/20 14:08:24;;;;;;;;;;;;;;;;;;5070921;28;20355;-63
2021/07/20 14:10:50;;;;;;;;;;;;;;;;;;5070992;28;19912;-63
2021/07/20 14:13:17;;;;;;;;;;;;;;;;;;5071266;28;19928;-63
2021/07/20 14:15:42;;;;;;;;;;;;;;;;;;5073440;28;20429;-63
2021/07/20 14:18:08;;;;;;;;;;;;;;;;;;5070674;28;19924;-63
2021/07/20 14:20:34;;;;;;;;;;;;;;;;;;5070550;28;19916;-63
2021/07/20 14:23:00;;;;;;;;;;;;;;;;;;5070157;28;19999;-63
2021/07/20 14:25:26;;;;;;;;;;;;;;;;;;5070682;28;20334;-63
2021/07/20 14:27:55;;;;;;;;;;;;;;;;;;5073129;28;19995;-63
2021/07/20 14:30:21;;;;;;;;;;;;;;;;;;5072926;28;19909;-63
2021/07/20 14:32:47;;;;;;;;;;;;;;;;;;5070255;28;20014;-63
2021/07/20 14:35:13;;;;;;;;;;;;;;;;;;5069826;28;19966;-62
2021/07/20 14:37:40;;;;;;;;;;;;;;;;;;5069780;28;19942;-62
2021/07/20 14:40:06;;;;;;;;;;;;;;;;;;5072254;28;20015;-62
2021/07/20 14:42:32;;;;;;;;;;;;;;;;;;5072136;28;20015;-62
2021/07/20 14:45:00;;;;;;;;;;;;;;;;;;5069690;28;20299;-62
2021/07/20 14:47:25;;;;;;;;;;;;;;;;;;5068891;28;19934;-62
2021/07/20 14:49:51;;;;;;;;;;;;;;;;;;5070218;28;19913;-62
2021/07/20 14:52:17;;;;;;;;;;;;;;;;;;5054212;28;20403;-62
2021/07/20 14:54:43;;;;;;;;;;;;;;;;;;5073426;28;19916;-62
2021/07/20 14:57:09;;;;;;;;;;;;;;;;;;5069509;28;19934;-62
2021/07/20 14:59:35;;;;;;;;;;;;;;;;;;5069598;28;19913;-62
2021/07/20 15:02:01;;;;;;;;;;;;;;;;;;5054490;28;20355;-62
2021/07/20 15:04:27;;;;;;;;;;;;;;;;;;5069804;28;19965;-62
2021/07/20 15:06:53;;;;;;;;;;;;;;;;;;5072069;28;20356;-62
2021/07/20 15:09:19;;;;;;;;;;;;;;;;;;5070175;28;19915;-62
2021/07/20 15:11:45;;;;;;;;;;;;;;;;;;5069494;28;20321;-62
2021/07/20 15:14:11;;;;;;;;;;;;;;;;;;5069654;28;19924;-62
2021/07/20 15:16:37;;;;;;;;;;;;;;;;;;5069687;28;20003;-62
2021/07/20 15:19:03;;;;;;;;;;;;;;;;;;5071652;28;19915;-62
2021/07/20 15:21:29;;;;;;;;;;;;;;;;;;5070214;28;19915;-61
2021/07/20 15:23:55;;;;;;;;;;;;;;;;;;5069589;28;19952;-61
2021/07/20 15:26:21;;;;;;;;;;;;;;;;;;5055666;28;20276;-61
2021/07/20 15:28:47;;;;;;;;;;;;;;;;;;5069639;28;19917;-62
2021/07/20 15:31:13;;;;;;;;;;;;;;;;;;5070076;28;19913;-62
2021/07/20 15:33:39;;;;;;;;;;;;;;;;;;5071995;28;19908;-61
2021/07/20 15:36:04;;;;;;;;;;;;;;;;;;5068715;28;20196;-61
2021/07/20 15:38:30;;;;;;;;;;;;;;;;;;5068657;28;19944;-63
2021/07/20 15:40:59;;;;;;;;;;;;;;;;;;5069251;28;20003;-61
2021/07/20 15:43:24;;;;;;;;;;;;;;;;;;5069177;28;19920;-63
2021/07/20 15:45:50;;;;;;;;;;;;;;;;;;5072414;28;19915;-62
2021/07/20 15:48:16;;;;;;;;;;;;;;;;;;5068963;28;19908;-63
2021/07/20 15:50:42;;;;;;;;;;;;;;;;;;5069088;28;20395;-62
2021/07/20 15:53:08;;;;;;;;;;;;;;;;;;5069004;28;19955;-63
2021/07/20 15:55:34;;;;;;;;;;;;;;;;;;5068815;28;19995;-63
2021/07/20 15:58:01;;;;;;;;;;;;;;;;;;5070867;28;20015;-62
2021/07/20 16:00:33;;;;;;;;;;;;;;;;;;5070351;28;20331;-63
2021/07/20 16:02:59;;;;;;;;;;;;;;;;;;5069040;28;19924;-63
2021/07/20 16:05:25;;;;;;;;;;;;;;;;;;5068705;28;19916;-63
2021/07/20 16:07:51;;;;;;;;;;;;;;;;;;5068462;28;20367;-63
2021/07/20 16:10:16;;;;;;;;;;;;;;;;;;5069162;28;19921;-63
2021/07/20 16:12:42;;;;;;;;;;;;;;;;;;5071999;28;19966;-63
2021/07/20 16:15:08;;;;;;;;;;;;;;;;;;5068930;28;19916;-62
2021/07/20 16:17:34;;;;;;;;;;;;;;;;;;5068333;28;20327;-61
2021/07/20 16:20:00;;;;;;;;;;;;;;;;;;5068106;28;19912;-63
2021/07/20 16:22:26;;;;;;;;;;;;;;;;;;5068554;28;19912;-63
2021/07/20 16:24:52;;;;;;;;;;;;;;;;;;5070898;28;19916;-63
2021/07/20 16:27:19;;;;;;;;;;;;;;;;;;5068541;28;19920;-63
2021/07/20 16:29:45;;;;;;;;;;;;;;;;;;5066729;28;19913;-63
2021/07/20 16:32:11;;;;;;;;;;;;;;;;;;5067644;28;19919;-63
2021/07/20 16:34:37;;;;;;;;;;;;;;;;;;5068617;28;19921;-63
2021/07/20 16:37:02;;;;;;;;;;;;;;;;;;5070631;28;19916;-63
2021/07/20 16:39:32;;;;;;;;;;;;;;;;;;5068894;28;19908;-63
2021/07/20 16:41:58;;;;;;;;;;;;;;;;;;5067401;28;19927;-63